Time;durP1;ratioP1;P1;durP2;ratioP2;P2;SDS_P1;SDS_P2;PMS_P1;PMS_P2;Temp;Humidity;BMP_temperature;BMP_pressure;BME280_temperature;BME280_humidity;BME280_pressure;Samples;Min_cycle;Max_cycle;Signal;HPM_P1;HPM_P2
2021/03/17 00:01:06;;;;;;;25.37;16.82;;;;;;;4.37;70.02;93383.85;1756262;81;21371;-60
2021/03/17 00:03:53;;;;;;;19.65;12.68;;;;;;;4.27;70.22;93389.04;1755621;81;21143;-61
2021/03/17 00:06:40;;;;;;;22.00;17.52;;;;;;;4.31;70.45;93377.45;1756240;81;21147;-61
2021/03/17 00:09:28;;;;;;;11.93;8.78;;;;;;;4.42;70.42;93369.67;1756248;81;21063;-60
2021/03/17 00:12:16;;;;;;;10.45;8.20;;;;;;;4.56;69.82;93354.22;1756277;81;21060;-59
2021/03/17 00:15:03;;;;;;;9.45;8.50;;;;;;;4.63;69.44;93366.20;1756199;81;21364;-60
2021/03/17 00:17:50;;;;;;;9.78;8.53;;;;;;;4.50;69.54;93362.02;1756171;81;21183;-60
2021/03/17 00:20:37;;;;;;;7.65;6.87;;;;;;;4.43;69.67;93360.30;1756234;81;21084;-60
2021/03/17 00:23:23;;;;;;;9.20;8.30;;;;;;;4.46;70.10;93358.67;1756222;81;21194;-60
2021/03/17 00:26:09;;;;;;;8.25;7.30;;;;;;;4.50;69.78;93361.44;1756258;81;21171;-60
2021/03/17 00:28:56;;;;;;;19.42;10.93;;;;;;;4.42;69.09;93358.78;1756242;81;22631;-61
2021/03/17 00:31:42;;;;;;;44.63;19.32;;;;;;;4.41;69.19;93354.54;1756143;81;21091;-60
2021/03/17 00:34:30;;;;;;;30.30;15.72;;;;;;;4.38;69.33;93347.27;1753605;81;21227;-60
2021/03/17 00:37:17;;;;;;;20.23;11.30;;;;;;;4.32;69.88;93340.88;1743146;82;21076;-60
2021/03/17 00:40:05;;;;;;;24.10;12.70;;;;;;;4.34;69.63;93341.19;1743206;81;21048;-60
2021/03/17 00:42:53;;;;;;;20.08;11.60;;;;;;;4.24;69.75;93339.58;1743164;82;21342;-59
2021/03/17 00:45:39;;;;;;;20.35;13.83;;;;;;;4.19;69.84;93337.42;1743098;82;21933;-61
2021/03/17 00:48:13;;;;;;;19.52;13.50;;;;;;;4.28;69.82;93334.77;1743143;81;21155;-59
2021/03/17 00:50:43;;;;;;;19.37;13.25;;;;;;;4.31;69.61;93332.55;1774183;80;21160;-60
2021/03/17 00:53:11;;;;;;;15.32;10.75;;;;;;;4.35;69.48;93331.81;1774875;80;21125;-60
2021/03/17 00:55:39;;;;;;;11.65;8.25;;;;;;;4.30;69.27;93331.03;1774876;80;21433;-60
2021/03/17 00:58:12;;;;;;;6.87;5.60;;;;;;;4.22;69.12;93324.30;1774078;80;21179;-60
2021/03/17 01:00:41;;;;;;;14.53;9.15;;;;;;;4.20;68.72;93327.31;1774852;80;21192;-60
2021/03/17 01:03:10;;;;;;;10.93;8.20;;;;;;;4.18;68.47;93324.24;1774939;80;21168;-60
2021/03/17 01:05:39;;;;;;;8.45;6.95;;;;;;;4.29;68.30;93326.02;1774915;80;21429;-60
2021/03/17 01:08:07;;;;;;;6.55;5.92;;;;;;;4.37;68.04;93330.00;1774877;80;21352;-60
2021/03/17 01:10:44;;;;;;;5.20;4.70;;;;;;;4.36;67.72;93327.12;1774830;80;21088;-60
2021/03/17 01:13:12;;;;;;;4.35;4.05;;;;;;;4.37;67.49;93328.05;1774846;80;21163;-60
2021/03/17 01:15:40;;;;;;;10.58;8.30;;;;;;;4.40;67.12;93330.50;1774805;80;21197;-60
2021/03/17 01:18:08;;;;;;;18.87;12.15;;;;;;;4.45;67.14;93324.48;1774899;80;21058;-60
2021/03/17 01:20:37;;;;;;;26.25;16.02;;;;;;;4.52;66.56;93322.27;1774896;80;21199;-60
2021/03/17 01:23:05;;;;;;;24.37;15.50;;;;;;;4.59;66.19;93312.48;1774816;80;21093;-60
2021/03/17 01:25:39;;;;;;;15.25;11.93;;;;;;;4.66;65.13;93320.41;1774829;80;21145;-60
2021/03/17 01:28:08;;;;;;;11.93;9.03;;;;;;;4.68;64.56;93321.31;1774906;80;21081;-61
2021/03/17 01:30:48;;;;;;;5.28;4.80;;;;;;;4.68;64.71;93317.23;1774897;80;21073;-60
2021/03/17 01:33:16;;;;;;;5.87;5.30;;;;;;;4.64;64.26;93322.05;1774894;80;21197;-60
2021/03/17 01:35:47;;;;;;;3.92;3.72;;;;;;;4.55;63.55;93319.25;1762450;80;21127;-60
2021/03/17 01:38:15;;;;;;;5.03;4.20;;;;;;;4.48;63.28;93315.42;1751876;82;21200;-59
2021/03/17 01:40:44;;;;;;;10.13;6.03;;;;;;;4.32;63.23;93324.54;1751866;81;21142;-59
2021/03/17 01:43:12;;;;;;;10.15;6.42;;;;;;;4.22;64.69;93322.19;1751903;81;21157;-60
2021/03/17 01:45:41;;;;;;;8.30;6.00;;;;;;;4.05;65.94;93327.01;1751857;82;21201;-60
2021/03/17 01:48:11;;;;;;;5.20;4.67;;;;;;;4.00;66.59;93327.58;1751831;81;21090;-60
2021/03/17 01:50:43;;;;;;;11.97;7.37;;;;;;;4.12;67.05;93330.88;1751915;82;21486;-60
2021/03/17 01:53:25;;;;;;;11.22;7.47;;;;;;;4.25;66.89;93335.66;1751863;82;21602;-61
2021/03/17 01:55:54;;;;;;;8.93;6.10;;;;;;;4.31;65.92;93325.74;1751930;80;21105;-60
2021/03/17 01:58:22;;;;;;;12.80;8.33;;;;;;;4.38;65.58;93335.02;1751870;81;21360;-60
2021/03/17 02:00:50;;;;;;;26.82;12.05;;;;;;;4.48;64.99;93342.06;1751861;82;21585;-60
2021/03/17 02:03:19;;;;;;;18.32;9.30;;;;;;;4.51;64.66;93339.81;1751841;82;21161;-60
2021/03/17 02:05:49;;;;;;;17.87;7.87;;;;;;;4.52;64.23;93324.99;1751863;81;21069;-60
2021/03/17 02:08:35;;;;;;;15.50;7.97;;;;;;;4.50;63.72;93324.68;1751884;82;21080;-60
2021/03/17 02:11:04;;;;;;;15.30;8.28;;;;;;;4.52;63.59;93320.91;1751893;82;21364;-60
2021/03/17 02:14:09;;;;;;;4.35;4.00;;;;;;;4.55;63.35;93314.58;1751743;82;21133;-60
2021/03/17 02:16:45;;;;;;;7.12;5.35;;;;;;;4.58;62.21;93317.77;1751832;81;21098;-61
2021/03/17 02:19:40;;;;;;;5.78;5.17;;;;;;;4.51;63.06;93316.67;1751873;82;21069;-59
2021/03/17 02:22:30;;;;;;;7.85;6.25;;;;;;;4.50;63.95;93317.88;1752043;81;21081;-60
2021/03/17 02:25:43;;;;;;;6.12;5.53;;;;;;;4.35;64.28;93311.99;1751892;82;21199;-60
2021/03/17 02:28:20;;;;;;;5.67;4.40;;;;;;;4.25;65.12;93301.63;1751854;80;21152;-59
2021/03/17 02:31:43;;;;;;;6.58;5.83;;;;;;;4.22;65.76;93305.86;1751965;81;21078;-60
2021/03/17 02:34:14;;;;;;;6.42;4.97;;;;;;;4.09;65.21;93300.44;1751759;82;21128;-60
2021/03/17 02:36:54;;;;;;;4.30;3.85;;;;;;;4.01;64.96;93297.81;1769035;80;21105;-60
2021/03/17 02:39:34;;;;;;;12.98;8.48;;;;;;;3.94;63.91;93294.56;1774573;80;21205;-59
2021/03/17 02:42:23;;;;;;;8.65;5.95;;;;;;;3.84;65.36;93303.24;1815799;79;21110;-60
2021/03/17 02:45:09;;;;;;;12.98;7.47;;;;;;;3.70;64.12;93295.55;1815750;79;21129;-60
2021/03/17 02:47:45;;;;;;;10.25;6.17;;;;;;;3.60;64.84;93293.95;1815791;79;21053;-60
2021/03/17 02:50:14;;;;;;;5.83;4.47;;;;;;;3.64;65.19;93295.95;1815813;78;21137;-61
2021/03/17 02:52:44;;;;;;;4.67;4.20;;;;;;;3.73;65.58;93301.46;1815732;78;21427;-60
2021/03/17 02:55:13;;;;;;;13.38;8.40;;;;;;;3.84;65.61;93296.45;1815683;78;21129;-60
2021/03/17 02:57:41;;;;;;;17.75;9.63;;;;;;;3.89;64.33;93291.80;1815843;79;21586;-60
2021/03/17 03:00:13;;;;;;;11.25;7.67;;;;;;;3.86;64.65;93287.86;1815754;79;21166;-61
2021/03/17 03:02:42;;;;;;;13.48;8.28;;;;;;;3.76;65.45;93303.91;1815878;78;21109;-60
2021/03/17 03:05:13;;;;;;;18.90;9.60;;;;;;;3.77;65.87;93296.69;1815749;79;21181;-60
2021/03/17 03:07:44;;;;;;;11.65;7.92;;;;;;;3.81;65.91;93294.61;1815794;79;21602;-60
2021/03/17 03:10:13;;;;;;;25.95;13.55;;;;;;;3.85;66.39;93295.24;1815499;79;21126;-59
2021/03/17 03:12:41;;;;;;;13.08;8.70;;;;;;;3.90;66.44;93299.38;1815759;78;21181;-60
2021/03/17 03:15:11;;;;;;;13.13;8.20;;;;;;;3.96;66.82;93297.61;1816006;78;21574;-60
2021/03/17 03:17:39;;;;;;;11.33;8.15;;;;;;;3.99;67.12;93295.36;1815923;79;21192;-60
2021/03/17 03:20:10;;;;;;;11.00;7.10;;;;;;;4.02;67.09;93297.22;1815812;78;21071;-61
2021/03/17 03:22:40;;;;;;;9.93;7.17;;;;;;;4.06;67.00;93300.58;1815948;78;21118;-60
2021/03/17 03:25:09;;;;;;;12.88;8.43;;;;;;;4.05;67.18;93288.92;1815921;79;21073;-60
2021/03/17 03:27:38;;;;;;;49.50;21.17;;;;;;;4.05;66.94;93297.08;1816035;79;21459;-61
2021/03/17 03:30:11;;;;;;;10.90;7.30;;;;;;;4.04;66.58;93294.20;1774708;80;21274;-60
2021/03/17 03:32:41;;;;;;;11.63;7.58;;;;;;;4.07;67.26;93293.32;1815916;78;28181;-60
2021/03/17 03:35:12;;;;;;;13.50;8.68;;;;;;;4.05;67.60;93293.00;1815871;79;21058;-61
2021/03/17 03:37:40;;;;;;;17.70;9.35;;;;;;;4.12;67.97;93294.14;1819368;78;21439;-62
2021/03/17 03:40:18;;;;;;;13.13;8.40;;;;;;;4.22;67.64;93291.63;1819372;78;21467;-60
2021/03/17 03:42:47;;;;;;;14.07;8.23;;;;;;;4.32;67.22;93301.41;1819398;78;21925;-60
2021/03/17 03:45:19;;;;;;;6.25;5.35;;;;;;;4.26;67.02;93302.41;1819275;78;21070;-60
2021/03/17 03:47:47;;;;;;;9.78;6.33;;;;;;;4.12;66.53;93296.86;1819369;78;21501;-59
2021/03/17 03:50:19;;;;;;;7.95;6.37;;;;;;;4.17;67.01;93302.31;1819355;78;21054;-60
2021/03/17 03:53:15;;;;;;;11.18;8.53;;;;;;;4.22;67.38;93305.24;1819409;78;21062;-61
2021/03/17 03:56:01;;;;;;;10.88;7.65;;;;;;;4.26;66.96;93305.88;1819343;78;21195;-60
2021/03/17 03:58:37;;;;;;;11.12;7.50;;;;;;;4.16;66.74;93308.37;1819299;78;21065;-61
2021/03/17 04:01:11;;;;;;;7.00;5.60;;;;;;;4.05;67.42;93306.61;1810478;78;21049;-60
2021/03/17 04:03:44;;;;;;;11.48;7.83;;;;;;;3.97;67.54;93306.70;1819443;78;21511;-60
2021/03/17 04:06:12;;;;;;;;;;;;;;;4.02;66.98;93307.49;1822130;78;21223;-61
2021/03/17 04:08:46;;;;;;;48.68;24.45;;;;;;;4.10;66.42;93314.23;1819339;78;21801;-60
2021/03/17 04:11:16;;;;;;;7.85;5.80;;;;;;;4.01;66.30;93310.64;1777921;80;21173;-60
2021/03/17 04:13:44;;;;;;;7.35;6.05;;;;;;;3.89;65.98;93306.02;1756178;81;21139;-60
2021/03/17 04:16:12;;;;;;;30.55;14.80;;;;;;;3.87;66.17;93311.88;1756182;81;21159;-59
2021/03/17 04:18:44;;;;;;;49.53;22.35;;;;;;;3.83;66.06;93314.58;1756203;81;21226;-61
2021/03/17 04:21:16;;;;;;;55.12;24.20;;;;;;;3.72;66.65;93306.74;1756238;81;21206;-60
2021/03/17 04:23:45;;;;;;;;;;;;;;;3.70;67.04;93314.58;1758764;81;21138;-60
2021/03/17 04:26:14;;;;;;;40.48;21.73;;;;;;;3.67;66.98;93316.82;1756241;81;20220;-60
2021/03/17 04:28:42;;;;;;;15.15;10.50;;;;;;;3.63;67.49;93318.90;1756204;81;21171;-60
2021/03/17 04:31:11;;;;;;;14.90;10.20;;;;;;;3.63;68.03;93322.98;1756239;81;21162;-60
2021/03/17 04:33:39;;;;;;;18.37;11.83;;;;;;;3.62;68.47;93322.81;1756157;81;21147;-60
2021/03/17 04:36:08;;;;;;;23.15;13.10;;;;;;;3.60;68.93;93325.22;1757149;81;21110;-60
2021/03/17 04:38:35;;;;;;;8.18;7.12;;;;;;;3.69;68.71;93328.02;1761350;81;21070;-60
2021/03/17 04:41:03;;;;;;;9.55;7.53;;;;;;;3.70;67.95;93333.61;1758608;81;21139;-60
2021/03/17 04:43:31;;;;;;;9.60;7.58;;;;;;;3.66;67.51;93326.79;1761252;81;21578;-60
2021/03/17 04:46:01;;;;;;;14.75;11.00;;;;;;;3.56;67.80;93332.73;1761302;81;21374;-60
2021/03/17 04:48:29;;;;;;;11.57;8.63;;;;;;;3.65;68.14;93336.89;1761386;81;21539;-60
2021/03/17 04:50:57;;;;;;;10.70;8.78;;;;;;;3.72;67.95;93336.66;1761314;81;21059;-60
2021/03/17 04:53:25;;;;;;;9.60;8.63;;;;;;;3.73;68.12;93329.27;1761261;81;21071;-60
2021/03/17 04:55:53;;;;;;;21.10;12.13;;;;;;;3.79;68.29;93339.16;1761299;81;21134;-60
2021/03/17 04:58:24;;;;;;;17.67;12.70;;;;;;;3.86;68.30;93339.53;1761300;81;21319;-60
2021/03/17 05:00:52;;;;;;;14.65;11.73;;;;;;;3.95;68.19;93342.33;1761245;81;21129;-60
2021/03/17 05:03:23;;;;;;;14.73;11.18;;;;;;;3.97;68.19;93342.65;1761253;81;21130;-61
2021/03/17 05:05:52;;;;;;;11.22;9.93;;;;;;;3.95;67.99;93347.77;1761278;81;21138;-59
2021/03/17 05:08:22;;;;;;;9.88;8.85;;;;;;;3.87;68.68;93349.95;1761267;81;21146;-60
2021/03/17 05:10:50;;;;;;;6.28;5.08;;;;;;;3.97;68.78;93349.45;1761263;81;21365;-60
2021/03/17 05:13:18;;;;;;;5.37;4.72;;;;;;;4.05;67.86;93351.50;1761215;81;21120;-60
2021/03/17 05:15:47;;;;;;;4.90;4.50;;;;;;;4.01;67.37;93344.06;1761249;81;21063;-60
2021/03/17 05:18:17;;;;;;;6.90;5.40;;;;;;;3.93;67.30;93347.45;1761316;81;21063;-60
2021/03/17 05:20:51;;;;;;;7.60;6.22;;;;;;;3.88;67.17;93346.04;1761306;81;21507;-60
2021/03/17 05:23:19;;;;;;;6.03;5.53;;;;;;;3.83;67.19;93351.30;1761317;81;21204;-60
2021/03/17 05:25:49;;;;;;;5.22;4.72;;;;;;;3.82;67.26;93355.19;1761214;81;21119;-60
2021/03/17 05:28:17;;;;;;;6.35;5.83;;;;;;;3.72;67.34;93362.48;1761269;81;21090;-62
2021/03/17 05:30:50;;;;;;;8.00;6.42;;;;;;;3.64;67.56;93359.84;1733448;81;21071;-61
2021/03/17 05:33:26;;;;;;;5.78;5.28;;;;;;;3.55;67.42;93363.05;1761366;81;21090;-60
2021/03/17 05:35:55;;;;;;;6.67;6.08;;;;;;;3.45;67.71;93367.46;1761114;79;21370;-60
2021/03/17 05:38:24;;;;;;;6.12;5.53;;;;;;;3.45;67.94;93360.67;1815721;79;21115;-60
2021/03/17 05:40:55;;;;;;;5.90;5.33;;;;;;;3.51;68.01;93362.41;1815792;79;21102;-60
2021/03/17 05:43:23;;;;;;;7.87;7.08;;;;;;;3.51;68.10;93365.13;1815789;78;21583;-59
2021/03/17 05:45:52;;;;;;;11.38;9.98;;;;;;;3.47;68.43;93366.42;1815758;78;21110;-61
2021/03/17 05:48:20;;;;;;;7.90;7.15;;;;;;;3.48;68.77;93374.91;1815817;79;21194;-60
2021/03/17 05:50:48;;;;;;;10.30;7.37;;;;;;;3.54;68.77;93370.44;1815729;79;21082;-61
2021/03/17 05:53:16;;;;;;;6.10;5.60;;;;;;;3.55;68.44;93374.67;1815731;78;21052;-61
2021/03/17 05:55:45;;;;;;;6.78;6.17;;;;;;;3.53;68.14;93368.91;1815764;78;21050;-60
2021/03/17 05:58:13;;;;;;;7.28;5.53;;;;;;;3.51;68.09;93371.92;1815774;78;21129;-60
2021/03/17 06:00:41;;;;;;;8.10;7.33;;;;;;;3.49;67.95;93372.96;1815721;77;21558;-60
2021/03/17 06:03:09;;;;;;;8.43;7.55;;;;;;;3.42;67.89;93373.16;1815716;78;21098;-60
2021/03/17 06:05:38;;;;;;;7.42;6.72;;;;;;;3.41;68.24;93381.77;1815784;79;21054;-60
2021/03/17 06:08:07;;;;;;;12.82;10.05;;;;;;;3.48;67.94;93380.18;1815777;79;21057;-63
2021/03/17 06:10:37;;;;;;;14.35;11.88;;;;;;;3.47;68.13;93382.73;1774550;80;21085;-61
2021/03/17 06:13:10;;;;;;;7.65;6.70;;;;;;;3.56;67.94;93387.09;1815675;79;21366;-61
2021/03/17 06:15:41;;;;;;;7.10;6.17;;;;;;;3.64;67.51;93387.03;1815703;79;21094;-61
2021/03/17 06:18:35;;;;;;;13.03;9.85;;;;;;;3.74;67.64;93387.31;1811802;79;21565;-61
2021/03/17 06:21:05;;;;;;;13.55;9.80;;;;;;;3.88;67.33;93384.73;1815876;79;21153;-60
2021/03/17 06:23:34;;;;;;;9.65;7.78;;;;;;;3.89;67.10;93392.44;1815767;79;21082;-59
2021/03/17 06:26:03;;;;;;;9.58;8.08;;;;;;;3.90;66.70;93385.80;1817945;77;21154;-59
2021/03/17 06:28:31;;;;;;;13.03;9.85;;;;;;;3.83;66.78;93387.39;1817740;78;21123;-61
2021/03/17 06:30:59;;;;;;;15.65;11.15;;;;;;;3.79;67.25;93400.94;1814362;79;21218;-61
2021/03/17 06:33:28;;;;;;;16.07;13.03;;;;;;;3.90;67.52;93398.03;1819927;78;21145;-61
2021/03/17 06:36:16;;;;;;;13.00;10.98;;;;;;;4.10;67.24;93398.58;1820236;78;21107;-61
2021/03/17 06:38:47;;;;;;;9.63;7.97;;;;;;;4.14;67.22;93395.13;1819229;78;21163;-63
2021/03/17 06:41:17;;;;;;;11.03;8.63;;;;;;;4.14;66.72;93397.86;1819199;78;21065;-62
2021/03/17 06:43:49;;;;;;;13.32;11.05;;;;;;;4.10;66.63;93405.38;1817921;78;21502;-62
2021/03/17 06:46:18;;;;;;;15.78;12.53;;;;;;;4.08;66.83;93415.91;1827926;77;21489;-61
2021/03/17 06:48:49;;;;;;;14.47;11.00;;;;;;;4.20;67.39;93411.06;1847076;77;21594;-59
2021/03/17 06:51:20;;;;;;;15.45;11.75;;;;;;;4.39;67.24;93413.37;1848666;77;22106;-62
2021/03/17 06:53:57;;;;;;;12.80;10.50;;;;;;;4.44;67.13;93404.02;1848331;77;21079;-62
2021/03/17 06:56:38;;;;;;;12.23;10.05;;;;;;;4.52;66.91;93403.95;1821242;76;21131;-61
2021/03/17 06:59:07;;;;;;;16.73;11.97;;;;;;;4.44;66.64;93414.16;1819961;77;21186;-63
2021/03/17 07:01:37;;;;;;;17.20;12.70;;;;;;;4.45;67.00;93409.63;1820340;78;21123;-62
2021/03/17 07:04:19;;;;;;;26.52;17.75;;;;;;;4.55;67.36;93423.49;1820155;77;21205;-61
2021/03/17 07:06:49;;;;;;;25.17;16.10;;;;;;;4.61;67.44;93425.80;1814390;79;21178;-62
2021/03/17 07:09:22;;;;;;;24.15;17.12;;;;;;;4.69;67.41;93417.56;1816861;77;21178;-62
2021/03/17 07:11:52;;;;;;;25.35;17.55;;;;;;;4.81;67.31;93415.99;1816106;78;21174;-64
2021/03/17 07:14:26;;;;;;;16.30;12.37;;;;;;;4.82;66.30;93424.32;1819193;77;21142;-61
2021/03/17 07:16:57;;;;;;;10.10;7.85;;;;;;;4.80;65.93;93419.30;1821945;77;21330;-63
2021/03/17 07:19:38;;;;;;;16.15;10.23;;;;;;;4.72;65.76;93409.09;1828257;77;21128;-62
2021/03/17 07:22:11;;;;;;;13.88;10.28;;;;;;;4.77;65.80;93418.83;1822778;77;21679;-61
2021/03/17 07:24:45;;;;;;;29.00;19.20;;;;;;;4.76;65.57;93410.50;1832779;77;21467;-62
2021/03/17 07:27:22;;;;;;;26.75;16.57;;;;;;;4.60;66.07;93422.92;1833380;77;21641;-62
2021/03/17 07:30:06;;;;;;;24.80;15.63;;;;;;;4.58;66.58;93408.98;1814979;78;21210;-62
2021/03/17 07:33:03;;;;;;;13.28;10.23;;;;;;;4.63;66.47;93413.12;1823145;77;21119;-61
2021/03/17 07:35:35;;;;;;;13.28;10.15;;;;;;;4.63;66.49;93411.14;1846750;77;21674;-68
2021/03/17 07:38:14;;;;;;;11.88;10.43;;;;;;;4.59;66.50;93407.78;1828635;76;21188;-62
2021/03/17 07:40:45;;;;;;;15.10;10.70;;;;;;;4.61;66.94;93410.83;1829713;76;21162;-71
2021/03/17 07:43:17;;;;;;;22.25;15.80;;;;;;;4.69;66.58;93410.75;1827735;77;21781;-59
2021/03/17 07:45:45;;;;;;;20.62;15.45;;;;;;;4.75;66.95;93413.06;1816793;77;22205;-62
2021/03/17 07:48:14;;;;;;;26.62;19.82;;;;;;;4.83;66.89;93408.87;1830573;77;21146;-61
2021/03/17 07:50:45;;;;;;;27.20;21.15;;;;;;;4.85;66.86;93422.84;1830680;77;21111;-61
2021/03/17 07:53:23;;;;;;;26.87;20.05;;;;;;;4.80;66.74;93415.22;1840416;77;21190;-63
2021/03/17 07:55:58;;;;;;;25.17;19.40;;;;;;;4.87;67.00;93409.54;1824089;77;21239;-64
2021/03/17 07:58:27;;;;;;;18.73;13.85;;;;;;;5.03;66.32;93406.63;1825806;77;21102;-62
2021/03/17 08:00:55;;;;;;;18.30;12.30;;;;;;;5.09;65.88;93399.39;1825685;78;21213;-61
2021/03/17 08:03:25;;;;;;;19.57;13.25;;;;;;;5.15;64.96;93403.05;1821616;77;21107;-67
2021/03/17 08:05:53;;;;;;;19.37;13.10;;;;;;;5.15;64.95;93408.50;1816524;78;21461;-61
2021/03/17 08:08:23;;;;;;;21.73;14.50;;;;;;;5.21;64.64;93403.25;1836869;77;21147;-61
2021/03/17 08:10:53;;;;;;;37.03;26.70;;;;;;;5.24;65.13;93405.85;1839123;77;21186;-62
2021/03/17 08:13:21;;;;;;;39.92;26.42;;;;;;;5.28;65.25;93409.20;1815818;77;21181;-61
2021/03/17 08:15:51;;;;;;;37.45;23.67;;;;;;;5.32;65.15;93410.59;1815990;76;21226;-61
2021/03/17 08:18:37;;;;;;;32.08;20.40;;;;;;;5.30;65.27;93409.52;1818246;77;21213;-64
2021/03/17 08:21:06;;;;;;;30.68;21.25;;;;;;;5.24;65.38;93406.59;1816894;77;21356;-64
2021/03/17 08:23:43;;;;;;;26.10;17.92;;;;;;;5.19;65.75;93398.23;1824996;76;21179;-65
2021/03/17 08:26:13;;;;;;;22.48;15.43;;;;;;;5.22;65.60;93405.54;1825131;76;21173;-63
2021/03/17 08:28:52;;;;;;;21.30;14.15;;;;;;;5.17;65.68;93402.63;1774642;79;21198;-63
2021/03/17 08:31:44;;;;;;;23.12;16.27;;;;;;;5.16;65.92;93401.84;1828327;77;21170;-62
2021/03/17 08:34:22;;;;;;;15.90;12.58;;;;;;;5.23;65.56;93404.33;1805161;77;21465;-62
2021/03/17 08:36:55;;;;;;;19.55;11.45;;;;;;;5.21;64.84;93392.34;1813550;77;21807;-61
2021/03/17 08:39:39;;;;;;;14.75;10.35;;;;;;;5.15;64.88;93400.95;1833892;77;21174;-62
2021/03/17 08:42:17;;;;;;;;;;;;;;;5.21;64.55;93393.12;1828378;77;21154;-62
2021/03/17 08:44:46;;;;;;;18.10;12.07;;;;;;;5.27;64.16;93391.33;1824389;77;20223;-64
2021/03/17 08:47:32;;;;;;;14.93;11.35;;;;;;;5.20;64.08;93388.09;1817703;76;21564;-62
2021/03/17 08:50:30;;;;;;;14.47;11.90;;;;;;;5.12;63.86;93399.86;1826091;76;21159;-64
2021/03/17 08:52:57;;;;;;;12.55;10.60;;;;;;;5.15;64.03;93398.97;1823449;77;22210;-62
2021/03/17 08:55:38;;;;;;;18.37;11.97;;;;;;;5.23;64.10;93395.53;1825518;77;21210;-61
2021/03/17 08:58:20;;;;;;;12.40;10.43;;;;;;;5.23;63.49;93395.53;1834539;77;21218;-64
2021/03/17 09:01:00;;;;;;;14.90;11.43;;;;;;;5.19;63.44;93396.87;1842083;77;21385;-59
2021/03/17 09:03:38;;;;;;;23.55;16.93;;;;;;;5.19;63.58;93409.13;1822500;77;20995;-61
2021/03/17 09:06:23;;;;;;;18.92;12.82;;;;;;;5.20;63.42;93403.09;1785197;79;21159;-61
2021/03/17 09:09:01;;;;;;;12.35;8.55;;;;;;;5.10;62.64;93406.95;1819481;77;21186;-61
2021/03/17 09:11:38;;;;;;;8.15;6.80;;;;;;;4.91;62.49;93412.89;1817947;76;21131;-68
2021/03/17 09:14:07;;;;;;;12.10;9.13;;;;;;;4.80;62.06;93412.49;1817951;76;21361;-63
2021/03/17 09:16:39;;;;;;;17.17;12.30;;;;;;;4.75;61.78;93413.69;1828912;76;21218;-62
2021/03/17 09:19:13;;;;;;;14.40;10.45;;;;;;;4.78;62.51;93422.33;1817193;77;21082;-62
2021/03/17 09:21:45;;;;;;;27.60;16.95;;;;;;;4.76;62.56;93417.92;1812772;77;21270;-58
2021/03/17 09:24:29;;;;;;;;;;;;;;;4.78;62.99;93409.45;1815065;77;21757;-63
2021/03/17 09:27:08;;;;;;;34.33;20.65;;;;;;;4.87;62.81;93417.71;1815481;77;21783;-61
2021/03/17 09:29:36;;;;;;;12.00;9.18;;;;;;;4.90;61.89;93405.15;1814241;77;21140;-69
2021/03/17 09:32:07;;;;;;;9.05;7.53;;;;;;;5.04;62.32;93418.27;1809201;78;21502;-61
2021/03/17 09:34:36;;;;;;;16.45;10.88;;;;;;;5.21;61.99;93412.20;1819922;77;21455;-62
2021/03/17 09:37:08;;;;;;;20.50;12.35;;;;;;;5.29;61.63;93421.63;1817536;78;21524;-58
2021/03/17 09:39:39;;;;;;;16.62;11.43;;;;;;;5.28;61.38;93414.66;1820540;77;21210;-65
2021/03/17 09:42:15;;;;;;;14.47;12.33;;;;;;;5.35;60.91;93419.84;1823890;76;21082;-61
2021/03/17 09:44:43;;;;;;;23.50;17.32;;;;;;;5.44;60.45;93426.72;1823294;77;21085;-62
2021/03/17 09:47:11;;;;;;;57.03;29.25;;;;;;;5.35;60.37;93417.88;1835226;77;21625;-61
2021/03/17 09:49:40;;;;;;;25.10;14.68;;;;;;;5.26;61.06;93424.63;1836899;77;21154;-60
2021/03/17 09:52:08;;;;;;;15.90;10.32;;;;;;;5.26;61.91;93432.80;1822067;77;21230;-61
2021/03/17 09:54:37;;;;;;;12.80;9.18;;;;;;;5.28;61.65;93428.28;1814722;78;21157;-61
2021/03/17 09:57:06;;;;;;;13.20;9.15;;;;;;;5.22;61.62;93427.94;1815918;77;21171;-59
2021/03/17 09:59:40;;;;;;;27.90;24.05;;;;;;;5.24;61.96;93425.68;1821246;77;21118;-62
2021/03/17 10:02:24;;;;;;;12.05;10.18;;;;;;;5.34;61.82;93427.86;1817779;77;21171;-60
2021/03/17 10:05:01;;;;;;;17.45;12.60;;;;;;;5.43;61.56;93427.92;1808537;77;21519;-58
2021/03/17 10:07:32;;;;;;;11.97;9.68;;;;;;;5.42;61.16;93433.97;1816289;77;21115;-62
2021/03/17 10:10:04;;;;;;;10.90;8.73;;;;;;;5.31;61.14;93434.20;1817912;78;21154;-59
2021/03/17 10:12:32;;;;;;;13.98;9.85;;;;;;;5.17;60.75;93430.63;1796415;78;21098;-59
2021/03/17 10:15:11;;;;;;;14.90;11.57;;;;;;;5.11;61.09;93439.22;1780933;78;21953;-61
2021/03/17 10:17:39;;;;;;;36.13;22.45;;;;;;;5.09;61.26;93436.77;1778981;80;21246;-60
2021/03/17 10:20:18;;;;;;;21.93;13.90;;;;;;;5.07;61.77;93434.50;1777235;79;21491;-62
2021/03/17 10:22:47;;;;;;;12.68;9.48;;;;;;;5.01;61.61;93438.23;1755011;80;21196;-61
2021/03/17 10:25:19;;;;;;;18.80;12.47;;;;;;;4.87;61.80;93442.81;1759357;80;21063;-61
2021/03/17 10:27:53;;;;;;;20.92;14.33;;;;;;;4.84;62.30;93436.31;1773285;80;21166;-61
2021/03/17 10:30:31;;;;;;;20.60;14.40;;;;;;;4.84;62.66;93432.22;1760652;80;22237;-62
2021/03/17 10:33:02;;;;;;;22.35;15.55;;;;;;;4.88;62.86;93427.99;1783885;80;38561;-60
2021/03/17 10:35:33;;;;;;;23.57;16.32;;;;;;;4.91;62.56;93437.41;1774180;80;21167;-61
2021/03/17 10:38:02;;;;;;;25.23;16.10;;;;;;;4.91;62.97;93444.22;1772299;80;21179;-61
2021/03/17 10:40:30;;;;;;;16.42;9.83;;;;;;;4.95;63.13;93433.20;1784604;76;21207;-62
2021/03/17 10:43:13;;;;;;;15.98;11.00;;;;;;;4.98;63.01;93438.52;1775492;78;21534;-66
2021/03/17 10:45:51;;;;;;;10.40;7.72;;;;;;;4.98;62.91;93439.88;1743866;79;21665;-58
2021/03/17 10:48:27;;;;;;;10.30;8.93;;;;;;;4.88;62.94;93435.58;1771483;78;21111;-61
2021/03/17 10:50:56;;;;;;;22.50;15.72;;;;;;;4.85;63.06;93430.23;1755106;79;21178;-55
2021/03/17 10:53:29;;;;;;;25.48;15.63;;;;;;;4.87;63.13;93434.05;1760674;80;21628;-58
2021/03/17 10:55:58;;;;;;;;;;;;;;;4.89;62.96;93429.52;1765360;80;22175;-57
2021/03/17 10:58:29;;;;;;;21.70;15.68;;;;;;;4.90;63.18;93435.89;1731078;81;20254;-58
2021/03/17 11:01:01;;;;;;;29.63;20.30;;;;;;;4.89;63.08;93435.73;1758121;80;21194;-58
2021/03/17 11:03:37;;;;;;;22.60;15.40;;;;;;;4.83;63.45;93442.93;1755201;81;21633;-58
2021/03/17 11:06:20;;;;;;;31.90;19.57;;;;;;;4.80;64.01;93435.65;1762470;79;21128;-57
2021/03/17 11:09:06;;;;;;;17.82;12.40;;;;;;;4.80;64.05;93441.71;1757106;81;21160;-57
2021/03/17 11:11:50;;;;;;;16.67;12.37;;;;;;;4.84;64.10;93441.75;1756477;81;21599;-57
2021/03/17 11:14:34;;;;;;;16.20;12.33;;;;;;;4.87;64.12;93442.23;1870397;76;22236;-61
2021/03/17 11:17:08;;;;;;;17.27;11.97;;;;;;;4.72;63.58;93446.64;1848561;76;21187;-58
2021/03/17 11:19:38;;;;;;;13.75;11.08;;;;;;;4.72;63.94;93440.42;1834618;77;21116;-59
2021/03/17 11:22:06;;;;;;;11.35;9.18;;;;;;;4.82;63.78;93441.41;1837126;77;21196;-57
2021/03/17 11:24:34;;;;;;;11.93;9.25;;;;;;;4.83;63.39;93446.27;1807869;78;21184;-57
2021/03/17 11:27:05;;;;;;;19.02;13.65;;;;;;;4.75;63.52;93455.91;1831249;78;21109;-56
2021/03/17 11:29:34;;;;;;;16.70;12.70;;;;;;;4.66;63.79;93451.14;1819127;78;21188;-56
2021/03/17 11:32:08;;;;;;;6.45;5.85;;;;;;;4.58;64.23;93456.64;1809139;78;21312;-57
2021/03/17 11:34:38;;;;;;;9.88;8.88;;;;;;;4.50;63.79;93456.73;1818535;78;21212;-58
2021/03/17 11:37:06;;;;;;;23.83;16.17;;;;;;;4.41;64.39;93454.52;1757065;80;21135;-57
2021/03/17 11:39:36;;;;;;;28.35;16.57;;;;;;;4.33;65.04;93452.63;1764012;79;21263;-55
2021/03/17 11:42:05;;;;;;;16.95;11.68;;;;;;;4.31;65.74;93453.67;1721646;82;21619;-56
2021/03/17 11:44:33;;;;;;;18.77;12.82;;;;;;;4.34;65.75;93455.52;1721334;82;21206;-56
2021/03/17 11:47:01;;;;;;;19.73;14.18;;;;;;;4.38;65.73;93462.95;1728722;82;21292;-57
2021/03/17 11:49:29;;;;;;;18.95;14.40;;;;;;;4.43;66.02;93450.14;1744002;81;21145;-58
2021/03/17 11:51:57;;;;;;;13.90;10.43;;;;;;;4.47;65.91;93458.97;1744735;80;21891;-56
2021/03/17 11:54:26;;;;;;;11.38;10.18;;;;;;;4.48;65.69;93460.50;1740829;80;21267;-60
2021/03/17 11:56:54;;;;;;;23.07;14.03;;;;;;;4.40;65.38;93456.47;1729549;80;21372;-57
2021/03/17 11:59:23;;;;;;;26.55;15.65;;;;;;;4.29;66.01;93457.43;1699174;81;21157;-65
2021/03/17 12:01:54;;;;;;;51.53;28.45;;;;;;;4.29;66.32;93462.88;1747238;80;21392;-58